Time;durP1;ratioP1;P1;durP2;ratioP2;P2;SDS_P1;SDS_P2;PMS_P1;PMS_P2;Temp;Humidity;BMP_temperature;BMP_pressure;BME280_temperature;BME280_humidity;BME280_pressure;Samples;Min_cycle;Max_cycle;Signal;HPM_P1;HPM_P2
2023/02/27 00:01:50;;;;;;;35.10;7.07;;;;;;;;;;4406877;32;317784;-86
2023/02/27 00:04:17;;;;;;;31.13;7.57;;;;;;;;;;4393387;32;317326;-83
2023/02/27 00:06:45;;;;;;;27.20;6.60;;;;;;;;;;4404920;32;317765;-83
2023/02/27 00:09:12;;;;;;;27.43;7.33;;;;;;;;;;4388777;32;329916;-84
2023/02/27 00:11:41;;;;;;;42.40;8.23;;;;;;;;;;4402367;32;317828;-83
2023/02/27 00:14:10;;;;;;;29.90;7.87;;;;;;;;;;4402614;32;317669;-83
2023/02/27 00:16:38;;;;;;;26.13;8.77;;;;;;;;;;4386827;32;416865;-85
2023/02/27 00:19:05;;;;;;;30.77;7.30;;;;;;;;;;4400666;32;317670;-84
2023/02/27 00:21:34;;;;;;;24.30;7.10;;;;;;;;;;4391123;32;318081;-84
2023/02/27 00:24:01;;;;;;;34.37;9.67;;;;;;;;;;4401966;32;317708;-84
2023/02/27 00:26:29;;;;;;;27.27;9.37;;;;;;;;;;4390037;32;317632;-84
2023/02/27 00:28:56;;;;;;;26.53;8.60;;;;;;;;;;4400959;32;317876;-84
2023/02/27 00:31:25;;;;;;;37.70;8.50;;;;;;;;;;4390532;32;317970;-84
2023/02/27 00:33:52;;;;;;;39.63;9.27;;;;;;;;;;4387769;32;317901;-85
2023/02/27 00:36:19;;;;;;;18.93;8.07;;;;;;;;;;4389989;32;337723;-84
2023/02/27 00:38:47;;;;;;;26.53;8.93;;;;;;;;;;4400568;32;317712;-84
2023/02/27 00:41:15;;;;;;;21.77;8.03;;;;;;;;;;4388920;32;317797;-84
2023/02/27 00:43:43;;;;;;;34.30;7.97;;;;;;;;;;4399245;32;358618;-83
2023/02/27 00:46:10;;;;;;;41.10;9.03;;;;;;;;;;4401061;32;317828;-83
2023/02/27 00:48:39;;;;;;;32.33;9.13;;;;;;;;;;4385465;32;420604;-83
2023/02/27 00:51:06;;;;;;;33.23;9.53;;;;;;;;;;4400810;32;318128;-83
2023/02/27 00:53:34;;;;;;;34.17;8.30;;;;;;;;;;4390227;32;317934;-84
2023/02/27 00:56:01;;;;;;;28.03;7.43;;;;;;;;;;4400346;32;318104;-82
2023/02/27 00:58:29;;;;;;;37.83;9.13;;;;;;;;;;4390551;32;318111;-84
2023/02/27 01:00:59;;;;;;;32.57;7.70;;;;;;;;;;4400878;32;317589;-84
2023/02/27 01:03:26;;;;;;;30.83;6.90;;;;;;;;;;4390320;32;317605;-83
2023/02/27 01:05:56;;;;;;;34.03;6.87;;;;;;;;;;4400208;32;317504;-83
2023/02/27 01:08:24;;;;;;;39.53;7.17;;;;;;;;;;4391652;32;317842;-83
2023/02/27 01:10:55;;;;;;;48.13;18.57;;;;;;;;;;4400841;32;317789;-82
2023/02/27 01:13:24;;;;;;;41.80;12.63;;;;;;;;;;4389993;32;318874;-84
2023/02/27 01:15:51;;;;;;;21.27;6.40;;;;;;;;;;4401376;32;318687;-83
2023/02/27 01:18:19;;;;;;;19.83;5.03;;;;;;;;;;4390050;32;318139;-84
2023/02/27 01:20:46;;;;;;;26.73;9.53;;;;;;;;;;4400576;32;317683;-84
2023/02/27 01:23:15;;;;;;;14.90;5.90;;;;;;;;;;4390416;32;317882;-83
2023/02/27 01:25:42;;;;;;;10.03;3.80;;;;;;;;;;4400734;32;317934;-83
2023/02/27 01:28:10;;;;;;;12.40;2.87;;;;;;;;;;4400437;32;317818;-82
2023/02/27 01:30:37;;;;;;;14.57;3.10;;;;;;;;;;4387862;32;417317;-82
2023/02/27 01:33:05;;;;;;;11.33;3.57;;;;;;;;;;4400296;32;317671;-83
2023/02/27 01:35:32;;;;;;;12.20;5.20;;;;;;;;;;4391109;32;317624;-83
2023/02/27 01:38:00;;;;;;;18.03;5.80;;;;;;;;;;4400132;32;317780;-83
2023/02/27 01:40:29;;;;;;;16.27;4.93;;;;;;;;;;4390529;32;317664;-84
2023/02/27 01:42:56;;;;;;;12.17;3.97;;;;;;;;;;4401550;32;317861;-82
2023/02/27 01:45:31;;;;;;;14.73;5.73;;;;;;;;;;4389157;32;317850;-83
2023/02/27 01:48:08;;;;;;;12.50;4.73;;;;;;;;;;4399917;32;318712;-84
2023/02/27 01:50:38;;;;;;;8.57;3.63;;;;;;;;;;4390899;32;317894;-83
2023/02/27 01:53:06;;;;;;;13.07;3.73;;;;;;;;;;4401468;32;316534;-82
2023/02/27 01:55:38;;;;;;;7.23;2.87;;;;;;;;;;4389285;32;317754;-84
2023/02/27 01:58:08;;;;;;;9.37;3.70;;;;;;;;;;4392365;32;316951;-82
2023/02/27 02:00:36;;;;;;;17.63;7.80;;;;;;;;;;4388460;32;316745;-83
2023/02/27 02:03:11;;;;;;;17.90;8.70;;;;;;;;;;4400290;32;317718;-85
2023/02/27 02:05:40;;;;;;;25.57;8.50;;;;;;;;;;4386160;32;416921;-85
2023/02/27 02:08:07;;;;;;;27.73;9.03;;;;;;;;;;4401167;32;317712;-85
2023/02/27 02:10:37;;;;;;;18.30;8.13;;;;;;;;;;4388913;32;317679;-82
2023/02/27 02:13:05;;;;;;;16.30;8.73;;;;;;;;;;4401155;32;317677;-84
2023/02/27 02:15:36;;;;;;;27.10;11.77;;;;;;;;;;4392749;32;317683;-83
2023/02/27 02:18:13;;;;;;;28.47;15.07;;;;;;;;;;4401754;32;331828;-82
2023/02/27 02:20:58;;;;;;;25.90;14.63;;;;;;;;;;4389668;32;418154;-82
2023/02/27 02:24:02;;;;;;;29.50;15.37;;;;;;;;;;4391784;32;318817;-85
2023/02/27 02:27:00;;;;;;;27.47;11.13;;;;;;;;;;4392310;32;319063;-83
2023/02/27 02:30:03;;;;;;;20.67;7.20;;;;;;;;;;4379081;32;319076;-84
2023/02/27 02:33:03;;;;;;;11.87;6.43;;;;;;;;;;4392629;32;317828;-83
2023/02/27 02:36:03;;;;;;;22.20;11.70;;;;;;;;;;4391858;32;317927;-84
2023/02/27 02:38:56;;;;;;;27.43;13.40;;;;;;;;;;4392485;32;318902;-85
2023/02/27 02:41:32;;;;;;;25.87;13.63;;;;;;;;;;4391886;32;318712;-82
2023/02/27 02:44:08;;;;;;;31.97;14.43;;;;;;;;;;4402734;32;318927;-83
2023/02/27 02:46:43;;;;;;;27.90;11.70;;;;;;;;;;4392268;32;318833;-83
2023/02/27 02:49:17;;;;;;;26.87;13.00;;;;;;;;;;4403229;32;336432;-82
2023/02/27 02:51:51;;;;;;;27.80;10.43;;;;;;;;;;4389804;32;418849;-82
2023/02/27 02:54:27;;;;;;;24.73;9.63;;;;;;;;;;4393218;32;319024;-84
2023/02/27 02:56:59;;;;;;;18.17;7.80;;;;;;;;;;4403171;32;317770;-82
2023/02/27 02:59:32;;;;;;;14.80;6.20;;;;;;;;;;4390700;32;317816;-83
2023/02/27 03:02:05;;;;;;;9.30;4.50;;;;;;;;;;4395168;32;317720;-81
2023/02/27 03:04:39;;;;;;;15.50;4.43;;;;;;;;;;4392104;32;316824;-82
2023/02/27 03:07:12;;;;;;;9.73;3.93;;;;;;;;;;4403556;32;317629;-83
2023/02/27 03:09:45;;;;;;;10.40;4.20;;;;;;;;;;4387608;32;415887;-83
2023/02/27 03:12:16;;;;;;;10.03;3.63;;;;;;;;;;4392732;32;317458;-85
2023/02/27 03:14:52;;;;;;;12.00;3.40;;;;;;;;;;4400567;32;317624;-83
2023/02/27 03:17:25;;;;;;;14.07;3.60;;;;;;;;;;4393054;32;317532;-83
2023/02/27 03:19:57;;;;;;;9.87;4.23;;;;;;;;;;4400826;32;317503;-83
2023/02/27 03:22:31;;;;;;;11.03;4.03;;;;;;;;;;4395878;32;351195;-82
2023/02/27 03:25:03;;;;;;;9.67;4.53;;;;;;;;;;4409735;32;317455;-82
2023/02/27 03:27:36;;;;;;;14.53;4.97;;;;;;;;;;4402217;32;316274;-89
2023/02/27 03:30:09;;;;;;;9.23;5.80;;;;;;;;;;4410789;32;317624;-88
2023/02/27 03:32:42;;;;;;;11.70;6.43;;;;;;;;;;4396135;32;316517;-88
2023/02/27 03:35:11;;;;;;;14.33;7.20;;;;;;;;;;4404874;32;317558;-84
2023/02/27 03:37:51;;;;;;;16.90;8.63;;;;;;;;;;4390780;32;389283;-85
2023/02/27 03:40:27;;;;;;;20.53;8.43;;;;;;;;;;4394100;32;317707;-83
2023/02/27 03:43:03;;;;;;;12.73;7.37;;;;;;;;;;4409683;32;327933;-83
2023/02/27 03:45:37;;;;;;;13.23;7.07;;;;;;;;;;4398800;32;317441;-82
2023/02/27 03:48:07;;;;;;;22.27;8.27;;;;;;;;;;4410919;32;325652;-81
2023/02/27 03:50:36;;;;;;;15.43;8.47;;;;;;;;;;4401732;32;317383;-81
2023/02/27 03:53:07;;;;;;;17.00;7.77;;;;;;;;;;4411704;32;317358;-81
2023/02/27 03:55:41;;;;;;;17.33;8.07;;;;;;;;;;4399545;32;317930;-83
2023/02/27 03:58:10;;;;;;;14.87;7.07;;;;;;;;;;4410760;32;317504;-81
2023/02/27 04:00:39;;;;;;;14.93;9.70;;;;;;;;;;4396071;32;417055;-81
2023/02/27 04:03:08;;;;;;;14.93;9.73;;;;;;;;;;4418210;32;317690;-83
2023/02/27 04:05:36;;;;;;;12.80;8.23;;;;;;;;;;4402989;32;351846;-84
2023/02/27 04:08:26;;;;;;;15.90;12.40;;;;;;;;;;4402395;32;317913;-82
2023/02/27 04:11:16;;;;;;;21.33;12.43;;;;;;;;;;4389467;32;388908;-82
2023/02/27 04:13:54;;;;;;;20.93;12.83;;;;;;;;;;4386612;32;419127;-83
2023/02/27 04:16:46;;;;;;;20.43;8.87;;;;;;;;;;4389832;32;318957;-82
2023/02/27 04:19:28;;;;;;;16.80;7.10;;;;;;;;;;4390743;32;317903;-82
2023/02/27 04:22:07;;;;;;;16.80;7.60;;;;;;;;;;4401542;32;317609;-84
2023/02/27 04:24:40;;;;;;;17.00;9.57;;;;;;;;;;4390943;32;317757;-83
2023/02/27 04:27:20;;;;;;;20.07;10.50;;;;;;;;;;4401839;32;317666;-83
2023/02/27 04:29:54;;;;;;;18.60;8.50;;;;;;;;;;4388085;32;418896;-83
2023/02/27 04:32:30;;;;;;;12.20;6.60;;;;;;;;;;4387704;32;318341;-82
2023/02/27 04:35:01;;;;;;;9.30;6.20;;;;;;;;;;4401326;32;317812;-83
2023/02/27 04:37:32;;;;;;;12.50;7.77;;;;;;;;;;4390802;32;316785;-82
2023/02/27 04:40:04;;;;;;;14.47;6.27;;;;;;;;;;4401834;32;317839;-82
2023/02/27 04:42:35;;;;;;;16.07;7.40;;;;;;;;;;4388691;32;318069;-83
2023/02/27 04:45:07;;;;;;;13.63;6.87;;;;;;;;;;4401266;32;317575;-84
2023/02/27 04:47:40;;;;;;;14.77;8.30;;;;;;;;;;4389487;32;317710;-84
2023/02/27 04:50:12;;;;;;;17.40;11.57;;;;;;;;;;4402187;32;317799;-83
2023/02/27 04:52:44;;;;;;;17.33;10.00;;;;;;;;;;4388358;32;388924;-83
2023/02/27 04:55:17;;;;;;;17.67;9.73;;;;;;;;;;4400331;32;318698;-85
2023/02/27 04:57:50;;;;;;;19.10;8.47;;;;;;;;;;4400259;32;317662;-83
2023/02/27 05:00:21;;;;;;;16.90;9.90;;;;;;;;;;4391556;32;317611;-82
2023/02/27 05:02:53;;;;;;;16.63;12.37;;;;;;;;;;4400920;32;317874;-87
2023/02/27 05:05:25;;;;;;;27.47;12.87;;;;;;;;;;4391318;32;318749;-83
2023/02/27 05:07:56;;;;;;;28.57;14.87;;;;;;;;;;4401541;32;318983;-82
2023/02/27 05:10:30;;;;;;;22.80;13.47;;;;;;;;;;4390095;32;318761;-84
2023/02/27 05:13:03;;;;;;;19.03;12.23;;;;;;;;;;4400201;32;318756;-83
2023/02/27 05:15:36;;;;;;;26.20;13.83;;;;;;;;;;4391234;32;318772;-83
2023/02/27 05:18:06;;;;;;;29.10;16.50;;;;;;;;;;4398804;32;319014;-82
2023/02/27 05:20:47;;;;;;;36.53;18.30;;;;;;;;;;4388893;32;318893;-83
2023/02/27 05:23:21;;;;;;;45.43;26.50;;;;;;;;;;4390988;32;318796;-82
2023/02/27 05:25:54;;;;;;;46.13;26.07;;;;;;;;;;4401166;32;317700;-82
2023/02/27 05:28:30;;;;;;;42.87;27.10;;;;;;;;;;4389850;32;318804;-83
2023/02/27 05:31:05;;;;;;;45.17;24.33;;;;;;;;;;4400095;32;318735;-83
2023/02/27 05:33:37;;;;;;;42.00;25.33;;;;;;;;;;4388671;32;318781;-82
2023/02/27 05:36:10;;;;;;;45.30;27.53;;;;;;;;;;4399565;32;319100;-83
2023/02/27 05:38:44;;;;;;;47.00;28.90;;;;;;;;;;4386646;32;421108;-83
2023/02/27 05:41:14;;;;;;;38.90;25.80;;;;;;;;;;4400254;32;319107;-82
2023/02/27 05:43:49;;;;;;;42.67;23.90;;;;;;;;;;4388417;32;390047;-83
2023/02/27 05:46:21;;;;;;;37.27;22.80;;;;;;;;;;4388070;32;318748;-85
2023/02/27 05:48:53;;;;;;;36.90;22.93;;;;;;;;;;4399520;32;318796;-83
2023/02/27 05:51:25;;;;;;;39.87;23.43;;;;;;;;;;4389817;32;353413;-83
2023/02/27 05:54:00;;;;;;;31.13;20.13;;;;;;;;;;4402745;32;318617;-82
2023/02/27 05:56:30;;;;;;;32.10;19.53;;;;;;;;;;4390534;32;349446;-83
2023/02/27 05:59:04;;;;;;;31.80;18.00;;;;;;;;;;4402801;32;319031;-82
2023/02/27 06:01:32;;;;;;;38.17;19.70;;;;;;;;;;4393075;32;319081;-82
2023/02/27 06:03:59;;;;;;;40.83;24.27;;;;;;;;;;4402892;32;318753;-82
2023/02/27 06:06:27;;;;;;;46.03;25.07;;;;;;;;;;4393583;32;318789;-83
2023/02/27 06:08:54;;;;;;;54.00;25.33;;;;;;;;;;4395247;32;318938;-82
2023/02/27 06:11:22;;;;;;;39.17;22.43;;;;;;;;;;4391007;32;319125;-83
2023/02/27 06:13:49;;;;;;;42.23;25.87;;;;;;;;;;4403093;32;318871;-82
2023/02/27 06:16:20;;;;;;;47.40;27.30;;;;;;;;;;4392453;32;318807;-81
2023/02/27 06:18:47;;;;;;;47.17;24.03;;;;;;;;;;4401206;32;319047;-83
2023/02/27 06:21:16;;;;;;;62.20;31.17;;;;;;;;;;4392474;32;318989;-83
2023/02/27 06:23:44;;;;;;;84.03;44.13;;;;;;;;;;4402629;32;318959;-84
2023/02/27 06:26:13;;;;;;;86.20;44.60;;;;;;;;;;4402024;32;318700;-85
2023/02/27 06:28:41;;;;;;;80.90;39.87;;;;;;;;;;4386716;32;418198;-83
2023/02/27 06:31:08;;;;;;;75.50;35.90;;;;;;;;;;4400653;32;318922;-82
2023/02/27 06:33:38;;;;;;;40.40;27.33;;;;;;;;;;4392511;32;318783;-84
2023/02/27 06:36:05;;;;;;;51.33;28.00;;;;;;;;;;4402642;32;319115;-85
2023/02/27 06:38:33;;;;;;;41.50;26.00;;;;;;;;;;4392595;32;320141;-83
2023/02/27 06:41:01;;;;;;;39.70;23.23;;;;;;;;;;4401887;32;319005;-83
2023/02/27 06:43:29;;;;;;;36.53;22.63;;;;;;;;;;4391863;32;319069;-83
2023/02/27 06:45:57;;;;;;;38.20;21.37;;;;;;;;;;4403897;32;319040;-81
2023/02/27 06:48:25;;;;;;;47.73;30.40;;;;;;;;;;4391384;32;318923;-82
2023/02/27 06:50:55;;;;;;;46.23;30.70;;;;;;;;;;4400855;32;319077;-85
2023/02/27 06:53:23;;;;;;;43.50;21.87;;;;;;;;;;4390956;32;319069;-86
2023/02/27 06:55:51;;;;;;;33.60;19.50;;;;;;;;;;4402664;32;318734;-86
2023/02/27 06:58:19;;;;;;;30.83;18.47;;;;;;;;;;4378270;32;318938;-85
2023/02/27 07:00:47;;;;;;;27.97;16.47;;;;;;;;;;4403579;32;318918;-84
2023/02/27 07:03:14;;;;;;;37.00;20.37;;;;;;;;;;4390780;32;319051;-83
2023/02/27 07:05:42;;;;;;;39.73;23.53;;;;;;;;;;4401763;32;319019;-82
2023/02/27 07:08:11;;;;;;;30.67;19.67;;;;;;;;;;4401935;32;318775;-82
2023/02/27 07:10:41;;;;;;;25.67;12.37;;;;;;;;;;4389406;32;417928;-82
2023/02/27 07:13:09;;;;;;;23.83;14.73;;;;;;;;;;4401192;32;318732;-82
2023/02/27 07:15:37;;;;;;;29.83;15.40;;;;;;;;;;4391330;32;318878;-82
2023/02/27 07:18:06;;;;;;;29.67;12.10;;;;;;;;;;4400977;32;318794;-81
2023/02/27 07:20:33;;;;;;;27.07;12.03;;;;;;;;;;4381584;32;318871;-83
2023/02/27 07:23:01;;;;;;;20.67;11.53;;;;;;;;;;4411076;32;318796;-82
2023/02/27 07:25:30;;;;;;;16.63;9.50;;;;;;;;;;4401288;32;317545;-83
2023/02/27 07:27:58;;;;;;;13.77;5.73;;;;;;;;;;4410462;32;317886;-83
2023/02/27 07:30:25;;;;;;;9.37;4.70;;;;;;;;;;4397028;32;318009;-84
2023/02/27 07:32:56;;;;;;;15.03;6.97;;;;;;;;;;4407170;32;315666;-81
2023/02/27 07:35:24;;;;;;;12.43;4.60;;;;;;;;;;4392773;32;318029;-83
2023/02/27 07:37:52;;;;;;;7.60;4.03;;;;;;;;;;4400947;32;317749;-83
2023/02/27 07:40:19;;;;;;;8.57;3.07;;;;;;;;;;4391781;32;316967;-83
2023/02/27 07:42:49;;;;;;;7.33;2.80;;;;;;;;;;4401608;32;316612;-82
2023/02/27 07:45:18;;;;;;;13.67;6.87;;;;;;;;;;4391903;32;316909;-83
2023/02/27 07:47:46;;;;;;;25.80;9.47;;;;;;;;;;4401709;32;318001;-83
2023/02/27 07:50:14;;;;;;;13.33;5.70;;;;;;;;;;4388488;32;329305;-83
2023/02/27 07:52:41;;;;;;;15.07;9.53;;;;;;;;;;4401230;32;317507;-82
2023/02/27 07:55:10;;;;;;;18.23;8.20;;;;;;;;;;4401646;32;317986;-83
2023/02/27 07:57:39;;;;;;;22.57;9.63;;;;;;;;;;4387514;32;417256;-82
2023/02/27 08:00:10;;;;;;;25.23;13.00;;;;;;;;;;4402787;32;317852;-85
2023/02/27 08:02:38;;;;;;;13.53;5.60;;;;;;;;;;4383861;32;418877;-87
2023/02/27 08:05:06;;;;;;;12.50;4.50;;;;;;;;;;4399628;32;347957;-87
2023/02/27 08:07:35;;;;;;;13.47;4.27;;;;;;;;;;4391212;32;317692;-80
2023/02/27 08:10:03;;;;;;;9.90;3.30;;;;;;;;;;4401195;32;318219;-84
2023/02/27 08:12:30;;;;;;;23.73;16.07;;;;;;;;;;4390919;32;316936;-87
2023/02/27 08:14:58;;;;;;;16.37;8.10;;;;;;;;;;4401765;32;319442;-86
2023/02/27 08:17:27;;;;;;;6.40;4.93;;;;;;;;;;4391348;32;317968;-81
2023/02/27 08:19:54;;;;;;;20.30;10.70;;;;;;;;;;4400922;32;355519;-81
2023/02/27 08:22:24;;;;;;;10.63;5.20;;;;;;;;;;4387159;32;318828;-86
2023/02/27 08:24:51;;;;;;;16.63;8.03;;;;;;;;;;4400133;32;317875;-84
2023/02/27 08:27:19;;;;;;;10.50;3.63;;;;;;;;;;4389446;32;318171;-88
2023/02/27 08:29:47;;;;;;;9.47;3.40;;;;;;;;;;4399899;32;317578;-85
2023/02/27 08:32:14;;;;;;;14.47;2.97;;;;;;;;;;4390360;32;354603;-87
2023/02/27 08:34:43;;;;;;;6.90;2.60;;;;;;;;;;4402703;32;317914;-87
2023/02/27 08:37:11;;;;;;;6.23;2.67;;;;;;;;;;4401954;32;316534;-88
2023/02/27 08:39:38;;;;;;;10.20;4.13;;;;;;;;;;4386283;32;417994;-88
2023/02/27 08:42:06;;;;;;;9.27;3.07;;;;;;;;;;4400066;32;317900;-85
2023/02/27 08:44:39;;;;;;;14.63;6.20;;;;;;;;;;4388947;32;316651;-86
2023/02/27 08:47:06;;;;;;;9.70;4.00;;;;;;;;;;4402365;32;316551;-87
2023/02/27 08:49:34;;;;;;;11.33;3.70;;;;;;;;;;4391341;32;316515;-83
2023/02/27 08:52:04;;;;;;;10.43;4.93;;;;;;;;;;4399077;32;317664;-84
2023/02/27 08:54:32;;;;;;;11.97;5.67;;;;;;;;;;4388983;32;318004;-85
2023/02/27 08:56:59;;;;;;;8.07;3.57;;;;;;;;;;4399164;32;317907;-84
2023/02/27 08:59:27;;;;;;;8.10;3.17;;;;;;;;;;4390233;32;316803;-82
2023/02/27 09:01:54;;;;;;;8.03;2.60;;;;;;;;;;4398607;32;316615;-84
2023/02/27 09:04:25;;;;;;;8.73;2.90;;;;;;;;;;4390630;32;316812;-84
2023/02/27 09:06:54;;;;;;;9.97;3.37;;;;;;;;;;4400558;32;317030;-83
2023/02/27 09:09:26;;;;;;;6.27;2.80;;;;;;;;;;4387912;32;316641;-81
2023/02/27 09:11:54;;;;;;;5.87;2.93;;;;;;;;;;4399970;32;316904;-83
2023/02/27 09:14:22;;;;;;;5.03;2.43;;;;;;;;;;4390540;32;316907;-83
2023/02/27 09:16:51;;;;;;;6.70;2.30;;;;;;;;;;4401065;32;316931;-83
2023/02/27 09:19:19;;;;;;;11.70;2.43;;;;;;;;;;4391458;32;316735;-82
2023/02/27 09:21:46;;;;;;;8.00;2.60;;;;;;;;;;4399064;32;317688;-84
2023/02/27 09:24:14;;;;;;;10.17;3.10;;;;;;;;;;4390082;32;316992;-85
2023/02/27 09:26:45;;;;;;;10.27;1.90;;;;;;;;;;4399500;32;317896;-84
2023/02/27 09:29:13;;;;;;;10.83;3.40;;;;;;;;;;4392332;32;317698;-84
2023/02/27 09:31:41;;;;;;;10.37;2.43;;;;;;;;;;4399261;32;317965;-85
2023/02/27 09:34:08;;;;;;;9.10;3.07;;;;;;;;;;4400785;32;317966;-87
2023/02/27 09:36:36;;;;;;;6.33;2.70;;;;;;;;;;4388636;32;316885;-86
2023/02/27 09:39:03;;;;;;;11.50;3.27;;;;;;;;;;4400094;32;316803;-89
2023/02/27 09:41:59;;;;;;;11.95;2.78;;;;;;;;;;4389316;32;317609;-87
2023/02/27 09:44:36;;;;;;;10.47;3.50;;;;;;;;;;4389945;32;317738;-88
2023/02/27 09:47:04;;;;;;;10.93;2.80;;;;;;;;;;4399605;32;317753;-86
2023/02/27 09:49:36;;;;;;;10.13;3.10;;;;;;;;;;4388827;32;318275;-86
2023/02/27 09:52:04;;;;;;;13.60;3.13;;;;;;;;;;4397582;32;317669;-86
2023/02/27 09:54:34;;;;;;;9.13;3.47;;;;;;;;;;4388507;32;317571;-85
2023/02/27 09:57:05;;;;;;;7.00;2.83;;;;;;;;;;4398052;32;350923;-85
2023/02/27 09:59:37;;;;;;;8.65;4.15;;;;;;;;;;4393977;32;316675;-83
2023/02/27 10:02:21;;;;;;;18.42;4.05;;;;;;;;;;4405999;32;316382;-84
2023/02/27 10:04:58;;;;;;;17.03;4.07;;;;;;;;;;4384407;32;387406;-86
2023/02/27 10:07:33;;;;;;;6.72;3.97;;;;;;;;;;4389479;32;317564;-77
2023/02/27 10:10:09;;;;;;;14.90;4.28;;;;;;;;;;4404317;32;315451;-80
2023/02/27 10:13:12;;;;;;;22.15;4.47;;;;;;;;;;4404055;32;317223;-83
2023/02/27 10:15:51;;;;;;;19.62;4.47;;;;;;;;;;4378862;32;417109;-81
2023/02/27 10:18:23;;;;;;;13.88;3.60;;;;;;;;;;4391876;32;316476;-80
2023/02/27 10:20:54;;;;;;;6.65;3.45;;;;;;;;;;4413911;32;317088;-85
2023/02/27 10:23:34;;;;;;;16.58;4.15;;;;;;;;;;4396422;32;316393;-86
2023/02/27 10:26:02;;;;;;;28.73;6.32;;;;;;;;;;4423592;27;319006;-91
2023/02/27 10:28:33;;;;;;;20.83;4.37;;;;;;;;;;4388043;32;318245;-91
2023/02/27 10:31:02;;;;;;;13.48;3.37;;;;;;;;;;4388869;32;317753;-92
2023/02/27 10:33:34;;;;;;;14.87;4.33;;;;;;;;;;4379852;32;318376;-91
2023/02/27 10:36:02;;;;;;;21.63;6.63;;;;;;;;;;4389224;32;317996;-93
2023/02/27 10:38:33;;;;;;;20.80;6.62;;;;;;;;;;4384259;32;317848;-90
2023/02/27 10:41:02;;;;;;;34.40;8.38;;;;;;;;;;4391909;32;317586;-90
2023/02/27 10:43:29;;;;;;;19.20;6.43;;;;;;;;;;4381078;32;337596;-92
2023/02/27 10:46:01;;;;;;;23.67;8.80;;;;;;;;;;4391820;32;317871;-92
2023/02/27 10:48:28;;;;;;;21.05;4.68;;;;;;;;;;4382491;32;318448;-90
2023/02/27 10:51:23;;;;;;;46.67;7.18;;;;;;;;;;4392851;32;317520;-90
2023/02/27 10:53:52;;;;;;;26.10;7.57;;;;;;;;;;4378623;32;417864;-89
2023/02/27 10:56:25;;;;;;;32.17;5.35;;;;;;;;;;4382273;32;318093;-91
2023/02/27 10:59:03;;;;;;;15.50;5.45;;;;;;;;;;4395162;32;317554;-91
2023/02/27 11:01:43;;;;;;;25.23;5.87;;;;;;;;;;4382704;32;317463;-93
2023/02/27 11:04:11;;;;;;;21.77;4.07;;;;;;;;;;4392950;32;317642;-92
2023/02/27 11:06:39;;;;;;;23.92;4.50;;;;;;;;;;4382667;32;416663;-93
2023/02/27 11:09:14;;;;;;;20.48;4.60;;;;;;;;;;4395490;32;317367;-91
2023/02/27 11:11:40;;;;;;;24.90;6.47;;;;;;;;;;4381635;32;408967;-90
2023/02/27 11:14:25;;;;;;;25.88;5.15;;;;;;;;;;4394155;32;317515;-93
2023/02/27 11:16:56;;;;;;;24.80;4.62;;;;;;;;;;4392858;32;414952;-93
2023/02/27 11:19:32;;;;;;;33.47;4.68;;;;;;;;;;4402630;32;317575;-91
2023/02/27 11:22:15;;;;;;;19.83;4.50;;;;;;;;;;4413157;32;317434;-93
2023/02/27 11:24:43;;;;;;;34.90;6.10;;;;;;;;;;4401201;32;419404;-92
2023/02/27 11:27:21;;;;;;;27.73;4.25;;;;;;;;;;4412320;32;317249;-90
2023/02/27 11:29:57;;;;;;;35.13;4.45;;;;;;;;;;4396976;32;418401;-93
2023/02/27 11:32:35;;;;;;;25.08;4.93;;;;;;;;;;4398543;32;317673;-91
2023/02/27 11:35:18;;;;;;;19.70;3.92;;;;;;;;;;4406971;32;317258;-90
2023/02/27 11:37:49;;;;;;;17.42;4.03;;;;;;;;;;4395058;32;416131;-91
2023/02/27 11:40:18;;;;;;;26.85;3.85;;;;;;;;;;4396941;32;317812;-91
2023/02/27 11:42:48;;;;;;;23.15;4.47;;;;;;;;;;4398955;32;318125;-91
2023/02/27 11:45:38;;;;;;;29.20;4.93;;;;;;;;;;4382134;32;317619;-91
2023/02/27 11:48:18;;;;;;;24.50;5.80;;;;;;;;;;4385590;32;317212;-91
2023/02/27 11:51:15;;;;;;;37.40;5.97;;;;;;;;;;4375394;32;421463;-91
2023/02/27 11:54:04;;;;;;;30.30;5.93;;;;;;;;;;4376844;32;398854;-92
2023/02/27 11:56:36;;;;;;;30.65;6.00;;;;;;;;;;4382573;32;317729;-90
2023/02/27 11:59:13;;;;;;;24.30;4.07;;;;;;;;;;4392132;32;318391;-89
2023/02/27 12:01:44;;;;;;;22.58;4.05;;;;;;;;;;4394881;32;416060;-90
2023/02/27 12:04:20;;;;;;;19.70;3.65;;;;;;;;;;4407414;32;317379;-91
2023/02/27 12:06:52;;;;;;;27.52;4.85;;;;;;;;;;4393626;32;418288;-91
2023/02/27 12:09:34;;;;;;;28.30;3.78;;;;;;;;;;4397297;32;317439;-93
2023/02/27 12:12:02;;;;;;;32.35;4.25;;;;;;;;;;4406707;32;317759;-89
2023/02/27 12:14:38;;;;;;;30.77;4.72;;;;;;;;;;4396101;32;317947;-88
2023/02/27 12:17:13;;;;;;;28.15;5.53;;;;;;;;;;4403791;32;318335;-92
2023/02/27 12:19:47;;;;;;;34.85;6.00;;;;;;;;;;4392713;32;421073;-91
2023/02/27 12:22:20;;;;;;;36.25;5.97;;;;;;;;;;4395205;32;317418;-90
2023/02/27 12:24:52;;;;;;;35.03;8.77;;;;;;;;;;4404427;32;317705;-91
2023/02/27 12:27:22;;;;;;;24.77;5.33;;;;;;;;;;4394613;32;357647;-91
2023/02/27 12:29:53;;;;;;;20.52;4.85;;;;;;;;;;4395328;32;317743;-91
2023/02/27 12:32:24;;;;;;;35.85;4.80;;;;;;;;;;4380297;32;318105;-91
2023/02/27 12:34:56;;;;;;;22.00;3.70;;;;;;;;;;4390316;32;318160;-90
2023/02/27 12:37:25;;;;;;;20.40;3.10;;;;;;;;;;4380163;32;317479;-89
2023/02/27 12:39:54;;;;;;;20.40;3.62;;;;;;;;;;4391929;32;317470;-89
2023/02/27 12:42:46;;;;;;;16.62;3.58;;;;;;;;;;4381265;32;318248;-89
2023/02/27 12:45:33;;;;;;;44.38;18.08;;;;;;;;;;4379488;32;317693;-91
2023/02/27 12:48:12;;;;;;;130.60;66.07;;;;;;;;;;4391551;32;319580;-89
2023/02/27 12:50:49;;;;;;;42.45;12.48;;;;;;;;;;4378711;32;420802;-90
2023/02/27 12:53:37;;;;;;;232.10;104.82;;;;;;;;;;4380279;32;318653;-89
2023/02/27 12:56:12;;;;;;;34.30;12.85;;;;;;;;;;4391129;32;320950;-90
2023/02/27 12:58:49;;;;;;;165.75;100.22;;;;;;;;;;4380092;32;422552;-92
2023/02/27 13:01:27;;;;;;;59.83;34.85;;;;;;;;;;4380830;32;320275;-89
2023/02/27 13:03:59;;;;;;;153.40;104.03;;;;;;;;;;4389541;32;318566;-90
2023/02/27 13:06:34;;;;;;;32.83;15.23;;;;;;;;;;4379115;32;358247;-91
2023/02/27 13:09:19;;;;;;;55.08;29.17;;;;;;;;;;4391525;32;318457;-92
2023/02/27 13:12:08;;;;;;;33.53;17.13;;;;;;;;;;4378132;32;419327;-93
2023/02/27 13:14:47;;;;;;;20.25;5.22;;;;;;;;;;4383218;32;318490;-92
2023/02/27 13:17:20;;;;;;;21.73;5.37;;;;;;;;;;4379162;32;317449;-91
2023/02/27 13:19:52;;;;;;;24.95;7.45;;;;;;;;;;4389367;32;345696;-89
2023/02/27 13:22:30;;;;;;;12.40;3.23;;;;;;;;;;4379325;32;318070;-90
2023/02/27 13:25:01;;;;;;;15.33;4.00;;;;;;;;;;4389986;32;318159;-90
2023/02/27 13:27:34;;;;;;;48.00;23.02;;;;;;;;;;4380292;32;318201;-91
2023/02/27 13:30:12;;;;;;;17.03;8.13;;;;;;;;;;4390345;32;319271;-91
2023/02/27 13:32:43;;;;;;;26.07;12.03;;;;;;;;;;4376761;32;416643;-90
2023/02/27 13:35:27;;;;;;;22.17;11.93;;;;;;;;;;4389246;32;318467;-89
2023/02/27 13:38:00;;;;;;;22.93;10.97;;;;;;;;;;4392066;32;419233;-90
2023/02/27 13:40:36;;;;;;;31.07;9.50;;;;;;;;;;4394497;32;318748;-90
2023/02/27 13:43:25;;;;;;;35.40;7.97;;;;;;;;;;4406721;32;316175;-90
2023/02/27 13:45:59;;;;;;;26.77;8.30;;;;;;;;;;4390810;32;419354;-91
2023/02/27 13:48:52;;;;;;;22.93;5.33;;;;;;;;;;4395617;32;317607;-91
2023/02/27 13:51:47;;;;;;;27.90;5.93;;;;;;;;;;4383680;32;318412;-91
2023/02/27 13:54:25;;;;;;;22.47;9.60;;;;;;;;;;4394223;32;328079;-91
2023/02/27 13:57:08;;;;;;;29.60;9.63;;;;;;;;;;4405578;32;317724;-90
2023/02/27 13:59:38;;;;;;;22.50;7.25;;;;;;;;;;4396622;32;317596;-90
2023/02/27 14:02:26;;;;;;;24.73;8.63;;;;;;;;;;4406867;32;317394;-90
2023/02/27 14:04:56;;;;;;;13.50;5.12;;;;;;;;;;4394587;32;418067;-89
2023/02/27 14:07:26;;;;;;;23.35;4.28;;;;;;;;;;4403289;32;317405;-91
2023/02/27 14:10:02;;;;;;;15.68;4.87;;;;;;;;;;4410655;32;317663;-88
2023/02/27 14:12:32;;;;;;;12.95;4.37;;;;;;;;;;4413263;32;317362;-89
2023/02/27 14:15:00;;;;;;;17.70;7.43;;;;;;;;;;4413821;32;317331;-90
2023/02/27 14:17:43;;;;;;;55.67;30.62;;;;;;;;;;4399984;32;317775;-93
2023/02/27 14:20:13;;;;;;;24.77;8.10;;;;;;;;;;4409404;32;318149;-90
2023/02/27 14:23:09;;;;;;;29.40;7.70;;;;;;;;;;4396696;32;416931;-89
2023/02/27 14:25:39;;;;;;;12.07;6.33;;;;;;;;;;4399067;32;318257;-92
2023/02/27 14:28:20;;;;;;;13.93;5.30;;;;;;;;;;4408670;32;317542;-92
2023/02/27 14:30:53;;;;;;;34.08;14.60;;;;;;;;;;4397458;32;420089;-90
2023/02/27 14:33:23;;;;;;;25.60;8.00;;;;;;;;;;4397449;32;318605;-91
2023/02/27 14:36:01;;;;;;;104.67;47.17;;;;;;;;;;4406818;32;317391;-91
2023/02/27 14:38:29;;;;;;;46.50;22.77;;;;;;;;;;4398931;32;319805;-91
2023/02/27 14:41:22;;;;;;;19.07;9.37;;;;;;;;;;4407558;32;319293;-91
2023/02/27 14:43:55;;;;;;;81.43;36.33;;;;;;;;;;4393932;32;410048;-90
2023/02/27 14:46:25;;;;;;;44.30;20.07;;;;;;;;;;4396784;32;318822;-91